createdAt,value
2018-05-07T00:01:11.645Z,3.33
2018-05-07T00:03:37.734Z,3.10
2018-05-07T00:06:03.910Z,3.20
2018-05-07T00:08:30.060Z,3.17
2018-05-07T00:10:56.233Z,3.07
2018-05-07T00:13:22.394Z,3.40
2018-05-07T00:15:49.299Z,3.37
2018-05-07T00:18:16.124Z,3.90
2018-05-07T00:20:42.315Z,3.43
2018-05-07T00:23:08.421Z,3.63
2018-05-07T00:25:34.578Z,3.33
2018-05-07T00:28:00.727Z,3.00
2018-05-07T00:30:26.881Z,3.30
2018-05-07T00:32:53.055Z,2.87
2018-05-07T00:35:19.207Z,3.00
2018-05-07T00:37:45.389Z,3.43
2018-05-07T00:40:11.531Z,3.37
2018-05-07T00:42:37.711Z,3.27
2018-05-07T00:45:03.860Z,3.40
2018-05-07T00:47:30.740Z,3.50
2018-05-07T00:49:57.727Z,3.70
2018-05-07T00:52:23.808Z,3.57
2018-05-07T00:55:08.483Z,3.23
2018-05-07T00:57:34.593Z,3.50
2018-05-07T01:00:01.753Z,3.90
2018-05-07T01:02:27.891Z,3.63
2018-05-07T01:04:54.065Z,3.70
2018-05-07T01:07:20.227Z,3.90
2018-05-07T01:09:47.132Z,3.67
2018-05-07T01:12:13.292Z,4.07
2018-05-07T01:14:39.441Z,3.23
2018-05-07T01:17:05.599Z,3.07
2018-05-07T01:19:31.761Z,3.17
2018-05-07T01:21:57.919Z,3.33
2018-05-07T01:24:24.067Z,3.33
2018-05-07T01:26:50.942Z,3.27
2018-05-07T01:29:17.111Z,3.80
2018-05-07T01:31:43.279Z,3.40
2018-05-07T01:34:09.435Z,3.40
2018-05-07T01:36:35.588Z,4.03
2018-05-07T01:39:01.750Z,3.80
2018-05-07T01:41:27.909Z,3.33
2018-05-07T01:43:54.043Z,4.13
2018-05-07T01:46:20.935Z,3.77
2018-05-07T01:48:47.106Z,3.70
2018-05-07T01:51:13.249Z,3.67
2018-05-07T01:53:39.390Z,3.83
2018-05-07T01:56:05.563Z,3.53
2018-05-07T01:58:31.744Z,3.30
2018-05-07T02:00:58.629Z,4.03
2018-05-07T02:03:24.766Z,3.40
2018-05-07T02:05:50.939Z,3.47
2018-05-07T02:08:17.102Z,3.50
2018-05-07T02:10:43.259Z,3.40
2018-05-07T02:13:09.409Z,3.60
2018-05-07T02:15:35.554Z,4.23
2018-05-07T02:18:01.713Z,3.80
2018-05-07T02:20:27.885Z,3.40
2018-05-07T02:22:54.039Z,3.70
2018-05-07T02:25:20.186Z,4.37
2018-05-07T02:27:46.336Z,3.77
2018-05-07T02:30:12.491Z,4.43
2018-05-07T02:32:38.647Z,3.60
2018-05-07T02:35:04.826Z,3.50
2018-05-07T02:37:30.964Z,4.10
2018-05-07T02:39:57.142Z,4.63
2018-05-07T02:42:23.326Z,3.83
2018-05-07T02:44:49.479Z,4.97
2018-05-07T02:47:16.390Z,4.60
2018-05-07T02:49:42.559Z,4.10
2018-05-07T02:52:08.713Z,3.97
2018-05-07T02:54:34.865Z,4.13
2018-05-07T02:57:01.057Z,4.00
2018-05-07T02:59:27.950Z,3.93
2018-05-07T03:01:54.095Z,3.87
2018-05-07T03:04:20.261Z,3.83
2018-05-07T03:06:46.421Z,3.80
2018-05-07T03:09:12.602Z,3.70
2018-05-07T03:11:38.759Z,3.50
2018-05-07T03:14:04.934Z,3.90
2018-05-07T03:16:31.076Z,3.80
2018-05-07T03:18:57.221Z,4.10
2018-05-07T03:21:23.388Z,3.83
2018-05-07T03:23:49.524Z,3.90
2018-05-07T03:26:15.695Z,4.80
2018-05-07T03:28:41.861Z,4.50
2018-05-07T03:31:08.007Z,4.60
2018-05-07T03:33:34.161Z,4.10
2018-05-07T03:36:00.323Z,4.20
2018-05-07T03:38:26.468Z,4.23
2018-05-07T03:40:52.619Z,4.33
2018-05-07T03:43:18.786Z,4.27
2018-05-07T03:45:45.736Z,4.50
2018-05-07T03:48:11.882Z,4.10
2018-05-07T03:50:38.031Z,4.03
2018-05-07T03:53:04.187Z,4.20
2018-05-07T03:55:30.335Z,3.87
2018-05-07T03:57:56.507Z,4.53
2018-05-07T04:00:22.675Z,3.90
2018-05-07T04:02:48.818Z,4.57
2018-05-07T04:05:14.979Z,4.70
2018-05-07T04:07:41.124Z,4.50
2018-05-07T04:10:07.277Z,4.20
2018-05-07T04:12:33.466Z,4.40
2018-05-07T04:14:59.608Z,4.00
2018-05-07T04:17:44.369Z,4.10
2018-05-07T04:20:29.029Z,4.30
2018-05-07T04:23:13.755Z,4.50
2018-05-07T04:25:39.918Z,4.87
2018-05-07T04:28:06.815Z,4.47
2018-05-07T04:30:32.979Z,4.10
2018-05-07T04:32:59.130Z,4.67
2018-05-07T04:35:26.012Z,4.50
2018-05-07T04:37:52.164Z,4.67
2018-05-07T04:40:18.321Z,4.80
2018-05-07T04:42:44.497Z,4.47
2018-05-07T04:45:10.646Z,4.63
2018-05-07T04:47:36.789Z,4.40
2018-05-07T04:50:02.945Z,5.00
2018-05-07T04:52:29.114Z,4.53
2018-05-07T04:54:56.983Z,5.60
2018-05-07T04:57:23.135Z,4.73
2018-05-07T04:59:49.281Z,5.20
2018-05-07T05:02:15.442Z,4.57
2018-05-07T05:04:41.624Z,4.37
2018-05-07T05:07:07.773Z,4.70
2018-05-07T05:09:33.902Z,5.17
2018-05-07T05:12:00.277Z,5.30
2018-05-07T05:14:26.438Z,4.37
2018-05-07T05:16:53.333Z,4.83
2018-05-07T05:19:19.485Z,4.33
2018-05-07T05:21:45.715Z,4.80
2018-05-07T05:24:12.680Z,4.43
2018-05-07T05:26:38.842Z,4.87
2018-05-07T05:29:04.979Z,5.00
2018-05-07T05:31:31.137Z,5.33
2018-05-07T05:33:57.287Z,5.20
2018-05-07T05:36:23.473Z,4.77
2018-05-07T05:38:50.500Z,5.23
2018-05-07T05:41:17.425Z,4.80
2018-05-07T05:43:43.670Z,4.80
2018-05-07T05:46:09.776Z,5.03
2018-05-07T05:48:35.968Z,4.70
2018-05-07T05:51:02.864Z,5.03
2018-05-07T05:53:29.022Z,4.90
2018-05-07T05:55:55.166Z,4.77
2018-05-07T05:58:21.316Z,4.90
2018-05-07T06:00:47.477Z,4.77
2018-05-07T06:03:13.638Z,5.00
2018-05-07T06:05:39.821Z,5.37
2018-05-07T06:08:06.042Z,4.43
2018-05-07T06:10:32.963Z,5.00
2018-05-07T06:12:59.136Z,4.70
2018-05-07T06:15:26.059Z,4.37
2018-05-07T06:17:52.228Z,4.97
2018-05-07T06:20:18.406Z,4.80
2018-05-07T06:22:44.593Z,5.20
2018-05-07T06:25:10.806Z,4.87
2018-05-07T06:27:36.973Z,4.57
2018-05-07T06:30:03.139Z,5.10
2018-05-07T06:32:29.287Z,4.63
2018-05-07T06:34:56.055Z,5.23
2018-05-07T06:37:22.252Z,5.23
2018-05-07T06:39:48.429Z,4.33
2018-05-07T06:42:14.577Z,4.43
2018-05-07T06:44:40.734Z,5.50
2018-05-07T06:47:06.918Z,4.37
2018-05-07T06:49:33.104Z,4.63
2018-05-07T06:51:59.267Z,4.90
2018-05-07T06:54:25.425Z,4.67
2018-05-07T06:56:51.591Z,4.77
2018-05-07T06:59:17.755Z,4.50
2018-05-07T07:01:44.673Z,4.70
2018-05-07T07:04:10.858Z,4.60
2018-05-07T07:06:37.015Z,4.40
2018-05-07T07:09:03.255Z,4.17
2018-05-07T07:11:29.451Z,4.47
2018-05-07T07:13:55.604Z,4.43
2018-05-07T07:16:21.830Z,4.43
2018-05-07T07:18:47.966Z,4.80
2018-05-07T07:21:14.156Z,4.30
2018-05-07T07:23:40.315Z,4.50
2018-05-07T07:26:07.240Z,4.47
2018-05-07T07:28:33.419Z,4.03
2018-05-07T07:30:59.573Z,4.70
2018-05-07T07:33:25.772Z,4.83
2018-05-07T07:35:52.659Z,4.50
2018-05-07T07:38:19.246Z,4.87
2018-05-07T07:40:46.169Z,4.83
2018-05-07T07:43:13.831Z,4.37
2018-05-07T07:45:41.483Z,4.87
2018-05-07T07:54:49.877Z,4.60
2018-05-07T07:57:16.089Z,4.73
2018-05-07T07:59:42.266Z,4.10
2018-05-07T08:02:09.209Z,4.80
2018-05-07T08:04:35.405Z,5.00
2018-05-07T08:07:01.583Z,5.20
2018-05-07T08:09:27.864Z,5.10
2018-05-07T08:11:54.107Z,4.73
2018-05-07T08:14:20.634Z,4.70
2018-05-07T08:16:46.854Z,5.00
2018-05-07T08:19:13.067Z,5.43
2018-05-07T08:21:39.248Z,4.80
2018-05-07T08:24:05.426Z,4.80
2018-05-07T08:26:31.604Z,5.00
2018-05-07T08:28:57.842Z,5.03
2018-05-07T08:31:24.011Z,5.03
2018-05-07T08:33:50.177Z,4.80
2018-05-07T08:36:16.342Z,5.10
2018-05-07T08:38:43.225Z,4.90
2018-05-07T08:41:09.374Z,4.63
2018-05-07T08:43:35.558Z,4.80
2018-05-07T08:46:01.714Z,5.23
2018-05-07T08:48:28.019Z,5.13
2018-05-07T08:50:54.984Z,4.40
2018-05-07T08:53:21.915Z,5.10
2018-05-07T08:55:48.115Z,5.17
2018-05-07T08:58:14.305Z,5.00
2018-05-07T09:00:40.454Z,4.83
2018-05-07T09:03:06.622Z,5.13
2018-05-07T09:05:33.506Z,4.87
2018-05-07T09:07:59.700Z,4.67
2018-05-07T09:10:25.920Z,4.57
2018-05-07T09:12:52.139Z,4.90
2018-05-07T09:15:18.350Z,5.00
2018-05-07T09:17:44.518Z,5.03
2018-05-07T09:20:10.665Z,4.97
2018-05-07T09:22:36.838Z,4.93
2018-05-07T09:25:03.007Z,4.70
2018-05-07T09:27:29.170Z,5.20
2018-05-07T09:29:55.351Z,4.90
2018-05-07T09:32:21.497Z,4.70
2018-05-07T09:34:47.683Z,4.80
2018-05-07T09:37:13.852Z,4.60
2018-05-07T09:39:40.016Z,5.50
2018-05-07T09:42:06.198Z,4.73
2018-05-07T09:44:32.334Z,5.53
2018-05-07T09:46:58.466Z,5.40
2018-05-07T09:49:24.628Z,4.97
2018-05-07T09:51:50.778Z,5.10
2018-05-07T09:54:16.953Z,5.32
2018-05-07T09:56:54.292Z,4.68
2018-05-07T09:59:20.467Z,4.90
2018-05-07T10:01:46.742Z,5.10
2018-05-07T10:04:12.976Z,5.50
2018-05-07T10:06:39.202Z,5.15
2018-05-07T10:09:05.467Z,5.00
2018-05-07T10:11:31.643Z,5.20
2018-05-07T10:13:58.121Z,5.43
2018-05-07T10:16:24.348Z,5.65
2018-05-07T10:18:50.579Z,5.68
2018-05-07T10:21:16.803Z,5.80
2018-05-07T10:23:42.973Z,5.40
2018-05-07T10:29:01.989Z,5.25
2018-05-07T10:31:28.265Z,5.57
2018-05-07T10:33:54.487Z,6.05
2018-05-07T10:36:20.718Z,5.80
2018-05-07T10:38:46.918Z,5.62
2018-05-07T10:41:13.171Z,5.25
2018-05-07T10:43:39.373Z,5.70
2018-05-07T10:46:06.279Z,5.65
2018-05-07T10:48:32.459Z,5.57
2018-05-07T10:50:58.604Z,5.60
2018-05-07T10:53:24.790Z,5.30
2018-05-07T10:55:50.951Z,5.22
2018-05-07T10:58:17.863Z,5.18
2018-05-07T11:00:44.045Z,5.18
2018-05-07T11:03:10.228Z,5.20
2018-05-07T11:05:36.407Z,4.75
2018-05-07T11:08:03.311Z,5.07
2018-05-07T11:10:29.494Z,4.45
2018-05-07T11:12:55.720Z,4.60
2018-05-07T11:15:22.615Z,4.45
2018-05-07T11:17:48.833Z,4.45
2018-05-07T11:20:14.974Z,3.92
2018-05-07T11:22:41.109Z,4.20
2018-05-07T11:25:07.291Z,4.93
2018-05-07T11:27:33.452Z,4.12
2018-05-07T11:29:59.582Z,4.00
2018-05-07T11:32:25.813Z,4.30
2018-05-07T11:34:52.794Z,3.42
2018-05-07T11:37:19.010Z,4.00
2018-05-07T11:39:45.171Z,3.45
2018-05-07T11:42:11.305Z,2.83
2018-05-07T11:44:37.471Z,3.33
2018-05-07T11:47:03.683Z,2.70
2018-05-07T11:49:29.893Z,3.30
2018-05-07T11:51:56.203Z,3.35
2018-05-07T11:54:22.383Z,3.53
2018-05-07T11:56:48.612Z,3.53
2018-05-07T11:59:15.540Z,3.25
2018-05-07T12:01:41.771Z,3.35
2018-05-07T12:04:08.730Z,4.00
2018-05-07T12:06:34.960Z,3.35
2018-05-07T12:09:01.248Z,3.35
2018-05-07T12:11:27.430Z,3.80
2018-05-07T12:13:53.694Z,4.45
2018-05-07T12:16:20.669Z,5.15
2018-05-07T12:18:46.929Z,4.65
2018-05-07T12:21:13.177Z,4.50
2018-05-07T12:23:39.350Z,4.03
2018-05-07T12:26:05.591Z,4.15
2018-05-07T12:28:31.810Z,4.20
2018-05-07T12:30:58.036Z,3.92
2018-05-07T12:33:24.289Z,3.60
2018-05-07T12:35:50.430Z,3.53
2018-05-07T12:38:17.379Z,3.40
2018-05-07T12:40:44.324Z,3.20
2018-05-07T12:43:10.565Z,3.95
2018-05-07T12:45:36.814Z,4.20
2018-05-07T12:48:03.006Z,3.40
2018-05-07T12:50:29.233Z,3.50
2018-05-07T12:52:55.445Z,3.20
2018-05-07T12:55:21.645Z,3.28
2018-05-07T12:57:47.871Z,3.70
2018-05-07T13:00:14.073Z,2.97
2018-05-07T13:02:40.385Z,3.42
2018-05-07T13:05:06.630Z,2.87
2018-05-07T13:07:32.840Z,3.30
2018-05-07T13:09:59.079Z,3.47
2018-05-07T13:12:25.454Z,3.47
2018-05-07T13:14:51.729Z,3.47
2018-05-07T13:17:17.962Z,3.92
2018-05-07T13:19:44.151Z,3.40
2018-05-07T13:22:10.332Z,3.67
2018-05-07T13:24:36.533Z,5.97
2018-05-07T13:27:03.466Z,4.30
2018-05-07T13:29:30.422Z,4.57
2018-05-07T13:31:56.626Z,4.40
2018-05-07T13:34:22.850Z,7.45
2018-05-07T13:36:49.180Z,4.10
2018-05-07T13:39:15.318Z,4.80
2018-05-07T13:41:41.574Z,5.50
2018-05-07T13:44:07.843Z,4.95
2018-05-07T13:46:34.036Z,5.50
2018-05-07T13:49:00.238Z,6.80
2018-05-07T13:51:26.471Z,5.30
2018-05-07T13:53:52.721Z,5.12
2018-05-07T13:56:18.947Z,4.65
2018-05-07T13:58:45.284Z,4.10
2018-05-07T14:01:11.498Z,4.28
2018-05-07T14:03:37.718Z,4.72
2018-05-07T14:06:03.976Z,4.55
2018-05-07T14:08:30.291Z,5.55
2018-05-07T14:10:56.508Z,6.03
2018-05-07T14:13:22.722Z,5.70
2018-05-07T14:15:48.943Z,5.15
2018-05-07T14:18:15.164Z,5.53
2018-05-07T14:20:41.418Z,4.50
2018-05-07T14:23:07.619Z,4.62
2018-05-07T14:25:33.874Z,4.90
2018-05-07T14:28:00.133Z,4.90
2018-05-07T14:30:26.865Z,4.60
2018-05-07T14:32:53.091Z,5.12
2018-05-07T14:35:19.353Z,5.28
2018-05-07T14:37:46.290Z,6.30
2018-05-07T14:40:14.014Z,4.75
2018-05-07T14:42:40.210Z,5.15
2018-05-07T14:45:06.432Z,4.80
2018-05-07T14:47:33.432Z,4.68
2018-05-07T14:49:59.646Z,4.85
2018-05-07T14:52:25.935Z,4.53
2018-05-07T14:54:52.171Z,5.65
2018-05-07T14:57:18.381Z,4.50
2018-05-07T14:59:44.599Z,4.30
2018-05-07T15:02:10.789Z,4.20
2018-05-07T15:04:36.966Z,6.10
2018-05-07T15:07:03.199Z,5.18
2018-05-07T15:09:29.392Z,4.65
2018-05-07T15:11:55.618Z,4.70
2018-05-07T15:14:22.659Z,2.67
2018-05-07T15:16:49.667Z,2.83
2018-05-07T15:19:15.887Z,2.58
2018-05-07T15:21:42.843Z,2.10
2018-05-07T15:24:09.050Z,2.58
2018-05-07T15:26:36.058Z,2.45
2018-05-07T15:29:02.387Z,2.85
2018-05-07T15:31:30.123Z,2.45
2018-05-07T15:33:56.348Z,3.08
2018-05-07T15:36:23.424Z,2.75
2018-05-07T15:38:49.561Z,3.12
2018-05-07T15:41:15.783Z,2.10
2018-05-07T15:43:42.089Z,2.05
2018-05-07T15:46:08.263Z,2.33
2018-05-07T15:48:34.561Z,2.22
2018-05-07T15:51:00.782Z,2.92
2018-05-07T15:53:27.016Z,2.30
2018-05-07T15:55:53.281Z,2.65
2018-05-07T15:58:19.486Z,2.30
2018-05-07T16:00:45.796Z,2.10
2018-05-07T16:03:13.559Z,2.30
2018-05-07T16:05:39.718Z,1.92
2018-05-07T16:08:06.044Z,2.33
2018-05-07T16:10:32.634Z,2.50
2018-05-07T16:12:59.547Z,2.20
2018-05-07T16:15:25.762Z,2.10
2018-05-07T16:17:51.955Z,2.12
2018-05-07T16:20:18.181Z,2.00
2018-05-07T16:22:44.388Z,1.90
2018-05-07T16:25:10.603Z,1.90
2018-05-07T16:27:36.896Z,1.95
2018-05-07T16:30:03.094Z,2.22
2018-05-07T16:32:29.322Z,2.47
2018-05-07T16:34:55.516Z,2.78
2018-05-07T16:37:21.770Z,1.85
2018-05-07T16:39:47.988Z,1.98
2018-05-07T16:42:14.244Z,1.90
2018-05-07T16:44:40.488Z,2.17
2018-05-07T16:47:06.741Z,1.67
2018-05-07T16:49:32.937Z,1.50
2018-05-07T16:51:59.916Z,1.90
2018-05-07T16:54:26.906Z,1.70
2018-05-07T16:56:53.096Z,1.40
2018-05-07T16:59:20.073Z,1.60
2018-05-07T17:01:46.301Z,1.70
2018-05-07T17:04:13.298Z,1.85
2018-05-07T17:06:39.498Z,1.62
2018-05-07T17:09:05.833Z,2.00
2018-05-07T17:11:32.020Z,1.70
2018-05-07T17:13:58.210Z,1.60
2018-05-07T17:16:24.390Z,1.80
2018-05-07T17:18:50.605Z,1.75
2018-05-07T17:21:16.859Z,1.58
2018-05-07T17:23:43.136Z,1.70
2018-05-07T17:26:09.323Z,1.67
2018-05-07T17:28:36.324Z,1.77
2018-05-07T17:31:02.571Z,1.65
2018-05-07T17:33:28.829Z,1.98
2018-05-07T17:35:55.046Z,1.90
2018-05-07T17:38:21.292Z,1.67
2018-05-07T17:40:47.535Z,1.90
2018-05-07T17:43:14.556Z,2.15
2018-05-07T17:46:09.574Z,1.83
2018-05-07T17:48:53.176Z,1.95
2018-05-07T17:51:19.378Z,2.05
2018-05-07T17:53:45.616Z,2.10
2018-05-07T17:56:12.851Z,2.05
2018-05-07T17:58:39.114Z,2.12
2018-05-07T18:01:05.373Z,2.17
2018-05-07T18:03:32.387Z,2.10
2018-05-07T18:05:58.601Z,2.20
2018-05-07T18:08:26.319Z,2.25
2018-05-07T18:10:52.527Z,2.10
2018-05-07T18:13:18.747Z,1.90
2018-05-07T18:15:45.708Z,2.10
2018-05-07T18:18:11.916Z,2.10
2018-05-07T18:20:38.750Z,2.00
2018-05-07T18:23:04.969Z,1.92
2018-05-07T18:25:31.173Z,1.70
2018-05-07T18:27:57.350Z,1.87
2018-05-07T18:30:23.574Z,2.12
2018-05-07T18:32:49.768Z,1.90
2018-05-07T18:35:15.966Z,1.80
2018-05-07T18:37:42.158Z,2.10
2018-05-07T18:40:08.392Z,2.10
2018-05-07T18:42:34.621Z,3.28
2018-05-07T18:45:00.892Z,2.22
2018-05-07T18:47:27.138Z,2.00
2018-05-07T18:49:53.303Z,2.17
2018-05-07T18:52:19.539Z,2.47
2018-05-07T18:54:45.765Z,1.90
2018-05-07T18:57:12.746Z,2.28
2018-05-07T18:59:39.020Z,2.37
2018-05-07T19:02:05.229Z,2.25
2018-05-07T19:04:31.455Z,2.20
2018-05-07T19:06:57.678Z,2.17
2018-05-07T19:09:23.852Z,2.20
2018-05-07T19:11:50.066Z,2.60
2018-05-07T19:14:16.341Z,1.92
2018-05-07T19:16:43.275Z,2.30
2018-05-07T19:19:11.096Z,2.43
2018-05-07T19:21:38.078Z,2.40
2018-05-07T19:24:04.305Z,2.20
2018-05-07T19:26:30.503Z,2.13
2018-05-07T19:28:56.713Z,2.43
2018-05-07T19:31:22.921Z,2.33
2018-05-07T19:33:49.132Z,3.07
2018-05-07T19:36:15.344Z,2.40
2018-05-07T19:38:41.557Z,2.30
2018-05-07T19:41:07.771Z,2.40
2018-05-07T19:43:33.987Z,2.30
2018-05-07T19:46:00.950Z,2.80
2018-05-07T19:48:27.226Z,2.73
2018-05-07T19:50:53.394Z,2.97
2018-05-07T19:53:19.578Z,2.70
2018-05-07T19:55:45.961Z,3.13
2018-05-07T19:58:12.195Z,2.50
2018-05-07T20:00:38.452Z,2.20
2018-05-07T20:03:04.690Z,3.63
2018-05-07T20:05:30.859Z,3.03
2018-05-07T20:07:57.050Z,3.17
2018-05-07T20:10:23.317Z,3.00
2018-05-07T20:12:49.467Z,3.20
2018-05-07T20:15:15.719Z,2.97
2018-05-07T20:17:41.939Z,3.03
2018-05-07T20:20:08.152Z,3.63
2018-05-07T20:22:34.319Z,2.67
2018-05-07T20:25:00.609Z,3.27
2018-05-07T20:27:26.718Z,3.40
2018-05-07T20:29:52.897Z,3.17
2018-05-07T20:32:19.130Z,3.30
2018-05-07T20:34:45.775Z,3.90
2018-05-07T20:37:11.936Z,3.40
2018-05-07T20:39:38.088Z,3.87
2018-05-07T20:42:04.331Z,3.67
2018-05-07T20:44:30.561Z,3.27
2018-05-07T20:46:56.770Z,3.90
2018-05-07T20:49:22.984Z,3.70
2018-05-07T20:51:49.138Z,3.70
2018-05-07T20:54:15.288Z,3.80
2018-05-07T20:56:41.465Z,3.47
2018-05-07T20:59:07.657Z,3.50
2018-05-07T21:01:33.827Z,3.60
2018-05-07T21:03:59.962Z,3.80
2018-05-07T21:06:26.119Z,3.67
2018-05-07T21:08:52.307Z,3.17
2018-05-07T21:11:18.456Z,3.10
2018-05-07T21:13:44.636Z,3.07
2018-05-07T21:16:10.789Z,3.33
2018-05-07T21:18:36.959Z,3.53
2018-05-07T21:21:03.232Z,3.20
2018-05-07T21:23:29.430Z,2.97
2018-05-07T21:25:55.611Z,3.10
2018-05-07T21:28:21.791Z,3.07
2018-05-07T21:30:47.981Z,3.20
2018-05-07T21:33:14.173Z,2.87
2018-05-07T21:35:40.359Z,3.10
2018-05-07T21:38:06.551Z,2.93
2018-05-07T21:40:32.743Z,2.90
2018-05-07T21:42:58.937Z,2.60
2018-05-07T21:45:25.099Z,3.10
2018-05-07T21:47:52.015Z,3.33
2018-05-07T21:50:18.200Z,3.40
2018-05-07T21:52:44.379Z,3.40
2018-05-07T21:55:10.546Z,3.37
2018-05-07T21:57:36.710Z,3.10
2018-05-07T22:00:02.896Z,3.30
2018-05-07T22:02:29.075Z,3.93
2018-05-07T22:04:55.283Z,3.57
2018-05-07T22:07:21.455Z,3.40
2018-05-07T22:09:48.046Z,3.20
2018-05-07T22:12:15.049Z,3.50
2018-05-07T22:14:41.126Z,3.80
2018-05-07T22:17:07.275Z,3.20
2018-05-07T22:19:34.187Z,3.70
2018-05-07T22:22:00.352Z,3.80
2018-05-07T22:24:26.492Z,3.67
2018-05-07T22:26:54.110Z,3.40
2018-05-07T22:29:20.263Z,3.70
2018-05-07T22:31:46.411Z,4.23
2018-05-07T22:34:14.017Z,3.33
2018-05-07T22:36:40.196Z,3.53
2018-05-07T22:39:06.444Z,3.70
2018-05-07T22:41:32.508Z,4.13
2018-05-07T22:43:58.663Z,4.03
2018-05-07T22:46:24.802Z,4.00
2018-05-07T22:48:50.973Z,3.90
2018-05-07T22:51:17.879Z,3.87
2018-05-07T22:53:44.004Z,3.73
2018-05-07T22:56:10.177Z,3.93
2018-05-07T22:58:36.345Z,3.73
2018-05-07T23:01:02.554Z,3.60
2018-05-07T23:03:29.516Z,3.40
2018-05-07T23:05:55.670Z,3.43
2018-05-07T23:08:21.828Z,3.90
2018-05-07T23:10:48.003Z,3.43
2018-05-07T23:13:14.899Z,3.40
2018-05-07T23:15:41.077Z,3.27
2018-05-07T23:18:07.269Z,3.37
2018-05-07T23:20:33.438Z,3.70
2018-05-07T23:22:59.584Z,3.40
2018-05-07T23:25:26.491Z,3.30
2018-05-07T23:27:52.652Z,2.80
2018-05-07T23:30:19.553Z,3.33
2018-05-07T23:32:45.759Z,3.30
2018-05-07T23:35:11.930Z,3.17
2018-05-07T23:37:38.098Z,3.17
2018-05-07T23:40:04.260Z,3.23
2018-05-07T23:42:30.426Z,3.23
2018-05-07T23:44:56.583Z,3.10
2018-05-07T23:47:22.731Z,3.60
2018-05-07T23:49:49.650Z,3.47
2018-05-07T23:52:15.796Z,3.63
2018-05-07T23:54:41.964Z,3.30
2018-05-07T23:57:08.135Z,3.13
2018-05-07T23:59:34.290Z,3.37
